createdAt,value
2023-01-03T00:00:22.563Z,99870.91
2023-01-03T00:02:50.804Z,99870.59
2023-01-03T00:05:19.280Z,99884.22
2023-01-03T00:07:48.820Z,99871.00
2023-01-03T00:10:16.820Z,99880.44
2023-01-03T00:12:43.828Z,99858.16
2023-01-03T00:15:14.560Z,99859.34
2023-01-03T00:17:42.742Z,99844.00
2023-01-03T00:20:11.776Z,99848.88
2023-01-03T00:22:39.863Z,99837.31
2023-01-03T00:25:10.271Z,99844.38
2023-01-03T00:27:38.486Z,99832.63
2023-01-03T00:30:07.337Z,99809.66
2023-01-03T00:32:35.579Z,99813.03
2023-01-03T00:35:05.455Z,99810.22
2023-01-03T00:37:33.804Z,99780.31
2023-01-03T00:40:01.883Z,99768.69
2023-01-03T00:42:51.457Z,99780.31
2023-01-03T00:45:21.697Z,99763.31
2023-01-03T00:47:52.095Z,99764.16
2023-01-03T00:50:20.372Z,99753.94
2023-01-03T00:52:48.420Z,99767.38
2023-01-03T00:55:16.562Z,99769.16
2023-01-03T00:57:46.143Z,99758.94
2023-01-03T01:00:14.938Z,99749.03
2023-01-03T01:02:43.401Z,99745.66
2023-01-03T01:05:11.845Z,99728.22
2023-01-03T01:07:40.386Z,99739.97
2023-01-03T01:10:08.776Z,99725.84
2023-01-03T01:12:36.972Z,99725.53
2023-01-03T01:15:07.659Z,99704.34
2023-01-03T01:17:36.076Z,99696.94
2023-01-03T01:20:04.270Z,99696.94
2023-01-03T01:22:33.067Z,99678.78
2023-01-03T01:25:01.204Z,99649.38
2023-01-03T01:27:29.354Z,99638.63
2023-01-03T01:29:57.726Z,99634.13
2023-01-03T01:32:27.280Z,99634.47
2023-01-03T01:34:55.625Z,99629.09
2023-01-03T01:37:23.710Z,99631.09
2023-01-03T01:39:52.330Z,99616.66
2023-01-03T01:42:37.863Z,99625.19
2023-01-03T01:45:06.801Z,99616.31
2023-01-03T01:47:39.674Z,99613.09
2023-01-03T01:50:14.709Z,99594.47
2023-01-03T01:52:46.070Z,99612.28
2023-01-03T01:55:15.271Z,99596.63
2023-01-03T01:57:44.304Z,99588.75
2023-01-03T02:00:13.382Z,99569.75
2023-01-03T02:02:49.460Z,99573.94
2023-01-03T02:05:19.184Z,99566.91
2023-01-03T02:07:49.998Z,99556.00
2023-01-03T02:10:18.807Z,99550.09
2023-01-03T02:13:08.449Z,99530.94
2023-01-03T02:15:41.687Z,99522.53
2023-01-03T02:18:20.598Z,99526.91
2023-01-03T02:21:01.977Z,99527.88
2023-01-03T02:23:36.346Z,99515.13
2023-01-03T02:26:19.395Z,99517.13
2023-01-03T02:29:02.556Z,99507.69
2023-01-03T02:31:35.776Z,99498.09
2023-01-03T02:34:05.970Z,99503.31
2023-01-03T02:36:39.128Z,99507.31
2023-01-03T02:39:12.913Z,99499.91
2023-01-03T02:41:43.637Z,99503.94
2023-01-03T02:44:15.304Z,99490.13
2023-01-03T02:46:48.003Z,99509.94
2023-01-03T02:49:23.329Z,99498.16
2023-01-03T02:51:54.218Z,99509.44
2023-01-03T02:54:26.255Z,99510.56
2023-01-03T02:56:59.185Z,99499.28
2023-01-03T02:59:32.358Z,99496.41
2023-01-03T03:02:03.228Z,99494.38
2023-01-03T03:04:32.287Z,99491.19
2023-01-03T03:07:03.322Z,99494.69
2023-01-03T03:09:31.733Z,99498.03
2023-01-03T03:12:19.620Z,99502.41
2023-01-03T03:14:50.379Z,99498.72
2023-01-03T03:17:22.966Z,99497.53
2023-01-03T03:20:10.604Z,99515.16
2023-01-03T03:22:59.774Z,99517.53
2023-01-03T03:25:30.179Z,99517.53
2023-01-03T03:28:17.887Z,99523.56
2023-01-03T03:30:47.468Z,99536.28
2023-01-03T03:33:19.233Z,99532.59
2023-01-03T03:35:49.170Z,99550.06
2023-01-03T03:38:21.873Z,99546.38
2023-01-03T03:41:11.888Z,99545.16
2023-01-03T03:44:00.937Z,99534.88
2023-01-03T03:46:33.309Z,99510.47
2023-01-03T03:49:24.426Z,99513.34
2023-01-03T03:51:55.473Z,99538.59
2023-01-03T03:54:25.053Z,99554.75
2023-01-03T03:56:57.371Z,99557.16
2023-01-03T03:59:26.511Z,99564.19
2023-01-03T04:01:55.551Z,99559.16
2023-01-03T04:04:28.741Z,99562.88
2023-01-03T04:06:56.908Z,99566.94
2023-01-03T04:09:24.977Z,99564.25
2023-01-03T04:11:52.997Z,99564.06
2023-01-03T04:14:21.683Z,99572.81
2023-01-03T04:16:49.828Z,99584.91
2023-01-03T04:19:18.233Z,99584.72
2023-01-03T04:21:47.807Z,99588.75
2023-01-03T04:24:15.873Z,99593.78
2023-01-03T04:26:44.074Z,99593.41
2023-01-03T04:29:12.434Z,99596.28
2023-01-03T04:31:40.578Z,99601.50
2023-01-03T04:34:08.889Z,99589.53
2023-01-03T04:36:36.982Z,99587.03
2023-01-03T04:39:06.594Z,99597.97
2023-01-03T04:41:34.654Z,99595.47
2023-01-03T04:44:01.803Z,99591.91
2023-01-03T04:46:31.643Z,99590.06
2023-01-03T04:49:00.114Z,99591.09
2023-01-03T04:51:28.677Z,99592.78
2023-01-03T04:53:57.076Z,99580.13
2023-01-03T04:56:27.446Z,99581.31
2023-01-03T04:58:56.224Z,99591.75
2023-01-03T05:01:24.778Z,99600.84
2023-01-03T05:03:53.069Z,99599.88
2023-01-03T05:06:21.273Z,99603.22
2023-01-03T05:08:50.203Z,99596.81
2023-01-03T05:11:18.479Z,99597.53
2023-01-03T05:13:48.115Z,99599.88
2023-01-03T05:16:16.985Z,99590.28
2023-01-03T05:18:46.092Z,99599.38
2023-01-03T05:21:32.997Z,99600.06
2023-01-03T05:24:19.066Z,99592.16
2023-01-03T05:26:47.422Z,99596.50
2023-01-03T05:29:19.433Z,99596.84
2023-01-03T05:31:47.989Z,99593.50
2023-01-03T05:34:16.500Z,99585.25
2023-01-03T05:36:44.571Z,99581.72
2023-01-03T05:39:13.336Z,99598.03
2023-01-03T05:41:59.007Z,99601.78
2023-01-03T05:44:28.651Z,99603.59
2023-01-03T05:46:56.922Z,99602.97
2023-01-03T05:49:25.074Z,99597.22
2023-01-03T05:51:53.348Z,99602.28
2023-01-03T05:54:21.967Z,99600.25
2023-01-03T05:56:51.313Z,99598.75
2023-01-03T05:59:21.192Z,99604.97
2023-01-03T06:01:51.119Z,99601.81
2023-01-03T06:04:19.429Z,99599.66
2023-01-03T06:06:48.703Z,99603.50
2023-01-03T06:09:17.038Z,99600.28
2023-01-03T06:11:45.372Z,99590.06
2023-01-03T06:14:13.728Z,99590.88
2023-01-03T06:16:59.337Z,99581.13
2023-01-03T06:19:28.954Z,99586.88
2023-01-03T06:21:57.201Z,99584.34
2023-01-03T06:24:25.400Z,99583.34
2023-01-03T06:26:53.666Z,99595.97
2023-01-03T06:29:21.805Z,99583.88
2023-01-03T06:31:49.943Z,99590.91
2023-01-03T06:34:18.016Z,99592.59
2023-01-03T06:36:47.871Z,99590.91
2023-01-03T06:39:15.967Z,99583.88
2023-01-03T06:41:44.051Z,99592.13
2023-01-03T06:44:12.403Z,99585.41
2023-01-03T06:46:57.848Z,99581.84
2023-01-03T06:49:43.326Z,99581.34
2023-01-03T06:52:32.917Z,99583.88
2023-01-03T06:55:01.024Z,99577.81
2023-01-03T06:57:29.178Z,99570.59
2023-01-03T06:59:57.750Z,99567.56
2023-01-03T07:02:26.102Z,99573.13
2023-01-03T07:04:54.398Z,99571.16
2023-01-03T07:07:24.072Z,99569.47
2023-01-03T07:09:52.204Z,99568.94
2023-01-03T07:12:37.623Z,99567.13
2023-01-03T07:15:06.620Z,99568.13
2023-01-03T07:17:35.007Z,99551.81
2023-01-03T07:20:03.087Z,99553.31
2023-01-03T07:22:32.854Z,99549.63
2023-01-03T07:25:01.185Z,99550.97
2023-01-03T07:27:29.405Z,99538.34
2023-01-03T07:29:57.789Z,99540.22
2023-01-03T07:32:26.174Z,99536.84
2023-01-03T07:34:54.336Z,99539.53
2023-01-03T07:37:22.376Z,99542.41
2023-01-03T07:39:51.873Z,99531.16
2023-01-03T07:42:37.375Z,99533.84
2023-01-03T07:45:06.264Z,99533.84
2023-01-03T07:47:34.480Z,99534.84
2023-01-03T07:50:02.747Z,99522.06
2023-01-03T07:52:30.991Z,99513.97
2023-01-03T07:55:00.536Z,99503.41
2023-01-03T07:57:29.421Z,99497.19
2023-01-03T07:59:57.471Z,99479.88
2023-01-03T08:02:25.697Z,99485.72
2023-01-03T08:04:54.160Z,99476.63
2023-01-03T08:07:22.596Z,99482.84
2023-01-03T08:10:08.243Z,99473.41
2023-01-03T08:12:55.444Z,99480.94
2023-01-03T08:15:23.847Z,99476.56
2023-01-03T08:17:52.145Z,99481.59
2023-01-03T08:20:20.460Z,99476.84
2023-01-03T08:22:48.561Z,99474.47
2023-01-03T08:25:16.757Z,99462.53
2023-01-03T08:27:50.186Z,99467.72
2023-01-03T08:30:18.914Z,99454.91
2023-01-03T08:32:46.944Z,99453.22
2023-01-03T08:35:16.235Z,99448.53
2023-01-03T08:37:46.043Z,99452.03
2023-01-03T08:40:17.078Z,99448.16
2023-01-03T08:42:47.231Z,99450.03
2023-01-03T08:45:18.188Z,99432.19
2023-01-03T08:47:47.326Z,99437.22
2023-01-03T08:50:15.862Z,99436.38
2023-01-03T08:52:43.977Z,99433.03
2023-01-03T08:55:12.110Z,99423.28
2023-01-03T08:57:40.458Z,99417.06
2023-01-03T09:00:11.780Z,99414.84
2023-01-03T09:02:40.898Z,99408.97
2023-01-03T09:05:10.108Z,99415.22
2023-01-03T09:07:38.703Z,99402.75
2023-01-03T09:10:07.387Z,99405.72
2023-01-03T09:12:35.636Z,99404.72
2023-01-03T09:15:03.719Z,99397.31
2023-01-03T09:17:33.448Z,99396.09
2023-01-03T09:20:01.700Z,99383.50
2023-01-03T09:22:29.920Z,99391.22
2023-01-03T09:24:58.099Z,99373.38
2023-01-03T09:27:26.927Z,99366.16
2023-01-03T09:29:55.430Z,99356.03
2023-01-03T09:32:24.106Z,99359.16
2023-01-03T09:34:53.538Z,99345.38
2023-01-03T09:37:21.762Z,99341.44
2023-01-03T09:39:49.827Z,99347.31
2023-01-03T09:42:37.550Z,99343.06
2023-01-03T09:45:06.766Z,99335.44
2023-01-03T09:47:37.175Z,99346.69
2023-01-03T09:53:13.178Z,99330.25
2023-01-03T09:56:09.240Z,99312.88
2023-01-03T09:58:56.419Z,99303.41
2023-01-03T10:01:51.045Z,99285.00
2023-01-03T10:04:36.549Z,99290.72
2023-01-03T10:07:12.804Z,99279.56
2023-01-03T10:09:44.486Z,99287.88
2023-01-03T10:12:17.698Z,99277.13
2023-01-03T10:14:51.398Z,99280.91
2023-01-03T10:17:23.800Z,99285.28
2023-01-03T10:19:58.923Z,99281.78
2023-01-03T10:22:29.296Z,99286.59
2023-01-03T10:25:01.008Z,99294.03
2023-01-03T10:27:32.429Z,99292.16
2023-01-03T10:30:02.277Z,99272.28
2023-01-03T10:32:46.601Z,99258.81
2023-01-03T10:35:20.027Z,99263.16
2023-01-03T10:37:52.397Z,99269.41
2023-01-03T10:40:20.764Z,99243.56
2023-01-03T10:42:50.570Z,99237.50
2023-01-03T10:45:21.028Z,99236.91
2023-01-03T10:47:59.037Z,99217.69
2023-01-03T10:50:27.805Z,99232.28
2023-01-03T10:52:59.837Z,99235.59
2023-01-03T10:55:28.460Z,99221.09
2023-01-03T10:58:01.207Z,99219.03
2023-01-03T11:00:34.546Z,99213.25
2023-01-03T11:03:14.624Z,99207.09
2023-01-03T11:05:45.948Z,99199.00
2023-01-03T11:08:30.683Z,99206.31
2023-01-03T11:11:02.478Z,99193.47
2023-01-03T11:13:36.046Z,99182.69
2023-01-03T11:16:17.314Z,99190.41
2023-01-03T11:19:00.485Z,99181.94
2023-01-03T11:21:36.451Z,99188.59
2023-01-03T11:24:10.593Z,99176.13
2023-01-03T11:26:46.308Z,99189.22
2023-01-03T11:29:25.258Z,99199.25
2023-01-03T11:31:56.265Z,99201.19
2023-01-03T11:35:11.603Z,99190.00
2023-01-03T11:37:28.480Z,99198.91
2023-01-03T11:40:04.115Z,99177.78
2023-01-03T11:42:40.880Z,99188.19
2023-01-03T11:45:23.632Z,99179.47
2023-01-03T11:47:57.238Z,99175.31
2023-01-03T11:50:29.098Z,99158.75
2023-01-03T11:53:00.880Z,99147.75
2023-01-03T11:55:38.781Z,99120.59
2023-01-03T11:58:23.557Z,99139.94
2023-01-03T12:01:03.026Z,99138.72
2023-01-03T12:03:44.040Z,99148.28
2023-01-03T12:06:17.575Z,99147.88
2023-01-03T12:08:49.720Z,99147.47
2023-01-03T12:11:25.968Z,99143.75
2023-01-03T12:14:01.988Z,99135.25
2023-01-03T12:16:33.050Z,99135.47
2023-01-03T12:19:08.424Z,99129.28
2023-01-03T12:21:42.771Z,99128.69
2023-01-03T12:24:16.241Z,99128.06
2023-01-03T12:26:50.183Z,99112.13
2023-01-03T12:29:22.913Z,99108.19
2023-01-03T12:31:55.420Z,99119.22
2023-01-03T12:34:28.110Z,99110.47
2023-01-03T12:37:01.856Z,99122.78
2023-01-03T12:39:37.967Z,99120.72
2023-01-03T12:42:09.533Z,99114.50
2023-01-03T12:44:42.064Z,99134.06
2023-01-03T12:47:16.204Z,99129.94
2023-01-03T12:49:46.979Z,99132.66
2023-01-03T12:52:19.250Z,99138.28
2023-01-03T12:54:50.818Z,99130.81
2023-01-03T12:57:39.477Z,99115.41
2023-01-03T13:00:22.506Z,99109.19
2023-01-03T13:02:55.536Z,99109.63
2023-01-03T13:05:26.135Z,99106.72
2023-01-03T13:08:04.531Z,99095.47
2023-01-03T13:10:35.009Z,99089.44
2023-01-03T13:13:03.606Z,99084.25
2023-01-03T13:15:36.664Z,99088.00
2023-01-03T13:18:33.419Z,99076.97
2023-01-03T13:21:01.577Z,99079.69
2023-01-03T13:23:33.267Z,99084.25
2023-01-03T13:26:20.306Z,99069.28
2023-01-03T13:28:49.877Z,99076.16
2023-01-03T13:31:48.578Z,99070.09
2023-01-03T13:34:34.861Z,99068.84
2023-01-03T13:37:10.891Z,99069.69
2023-01-03T13:39:39.425Z,99070.50
2023-01-03T13:42:07.741Z,99086.53
2023-01-03T13:44:37.103Z,99072.16
2023-01-03T13:47:06.993Z,99078.81
2023-01-03T13:49:37.002Z,99079.44
2023-01-03T13:52:29.774Z,99078.81
2023-01-03T13:55:03.354Z,99071.72
2023-01-03T13:57:41.616Z,99073.41
2023-01-03T14:00:19.065Z,99065.50
2023-01-03T14:03:09.418Z,99065.91
2023-01-03T14:06:12.377Z,99053.59
2023-01-03T14:08:57.417Z,99060.47
2023-01-03T14:11:40.379Z,99047.34
2023-01-03T14:14:12.096Z,99046.09
2023-01-03T14:16:46.955Z,99050.00
2023-01-03T14:19:20.577Z,99057.09
2023-01-03T14:21:50.255Z,99055.84
2023-01-03T14:24:29.170Z,99059.16
2023-01-03T14:27:04.942Z,99043.13
2023-01-03T14:29:33.998Z,99035.00
2023-01-03T14:32:02.229Z,99045.81
2023-01-03T14:34:32.098Z,99033.53
2023-01-03T14:37:04.792Z,99037.69
2023-01-03T14:42:04.579Z,99036.22
2023-01-03T14:44:33.453Z,99038.72
2023-01-03T14:47:05.238Z,99043.72
2023-01-03T14:49:36.775Z,99044.34
2023-01-03T14:52:08.605Z,99044.16
2023-01-03T14:54:44.394Z,99047.69
2023-01-03T14:57:18.272Z,99041.22
2023-01-03T14:59:46.849Z,99042.25
2023-01-03T15:02:16.480Z,99042.03
2023-01-03T15:04:45.408Z,99048.69
2023-01-03T15:07:34.397Z,99048.28
2023-01-03T15:10:07.281Z,99041.78
2023-01-03T15:12:37.468Z,99042.22
2023-01-03T15:15:09.774Z,99024.50
2023-01-03T15:17:39.833Z,99049.28
2023-01-03T15:20:10.645Z,99039.91
2023-01-03T15:22:41.005Z,99037.59
2023-01-03T15:25:21.207Z,99031.97
2023-01-03T15:27:52.880Z,99039.88
2023-01-03T15:30:27.392Z,99037.56
2023-01-03T15:33:05.164Z,99026.13
2023-01-03T15:35:37.199Z,99029.88
2023-01-03T15:38:08.596Z,99041.94
2023-01-03T15:40:41.834Z,99045.69
2023-01-03T15:43:23.416Z,99048.41
2023-01-03T15:45:59.949Z,99053.00
2023-01-03T15:48:35.449Z,99047.34
2023-01-03T15:51:05.905Z,99055.88
2023-01-03T15:53:43.363Z,99055.28
2023-01-03T15:56:20.507Z,99056.94
2023-01-03T15:58:50.718Z,99061.50
2023-01-03T16:01:21.159Z,99056.09
2023-01-03T16:03:50.234Z,99064.22
2023-01-03T16:06:21.454Z,99064.00
2023-01-03T16:08:49.875Z,99077.78
2023-01-03T16:11:28.025Z,99086.97
2023-01-03T16:14:05.194Z,99085.91
2023-01-03T16:16:37.648Z,99081.97
2023-01-03T16:19:07.436Z,99085.75
2023-01-03T16:21:36.553Z,99087.00
2023-01-03T16:24:06.801Z,99088.25
2023-01-03T16:26:38.018Z,99104.94
2023-01-03T16:29:07.748Z,99092.66
2023-01-03T16:31:38.618Z,99090.97
2023-01-03T16:34:09.175Z,99079.50
2023-01-03T16:36:40.787Z,99075.75
2023-01-03T16:39:15.240Z,99085.75
2023-01-03T16:42:02.841Z,99089.09
2023-01-03T16:44:35.478Z,99086.41
2023-01-03T16:47:05.897Z,99094.34
2023-01-03T16:49:36.087Z,99091.00
2023-01-03T16:52:04.317Z,99091.88
2023-01-03T16:54:33.014Z,99091.66
2023-01-03T16:57:03.660Z,99090.41
2023-01-03T16:59:33.454Z,99090.03
2023-01-03T17:02:02.191Z,99090.03
2023-01-03T17:04:30.543Z,99111.69
2023-01-03T17:07:02.009Z,99112.31
2023-01-03T17:09:36.407Z,99099.19
2023-01-03T17:12:06.562Z,99091.28
2023-01-03T17:14:38.391Z,99087.53
2023-01-03T17:17:07.385Z,99094.84
2023-01-03T17:22:29.652Z,99111.31
2023-01-03T17:24:59.098Z,99086.28
2023-01-03T17:27:33.213Z,99077.13
2023-01-03T17:30:05.370Z,99069.03
2023-01-03T17:32:39.147Z,99074.84
2023-01-03T17:35:13.849Z,99060.50
2023-01-03T17:38:14.222Z,99030.72
2023-01-03T17:40:33.971Z,99026.78
2023-01-03T17:43:05.971Z,99075.06
2023-01-03T17:45:51.778Z,99072.38
2023-01-03T17:48:38.663Z,99067.97
2023-01-03T17:51:08.294Z,99054.66
2023-01-03T17:53:40.284Z,99074.66
2023-01-03T17:56:08.807Z,99088.81
2023-01-03T17:58:42.213Z,99087.38
2023-01-03T18:01:10.632Z,99091.97
2023-01-03T18:03:39.400Z,99083.19
2023-01-03T18:06:09.673Z,99090.88
2023-01-03T18:08:38.054Z,99099.66
2023-01-03T18:11:08.876Z,99079.84
2023-01-03T18:13:40.318Z,99086.31
2023-01-03T18:16:08.852Z,99089.03
2023-01-03T18:18:37.440Z,99090.69
2023-01-03T18:21:08.575Z,99090.88
2023-01-03T18:23:39.502Z,99073.81
2023-01-03T18:26:10.756Z,99082.38
2023-01-03T18:28:43.344Z,99083.19
2023-01-03T18:31:14.843Z,99077.78
2023-01-03T18:33:43.625Z,99097.75
2023-01-03T18:36:25.220Z,99080.28
2023-01-03T18:38:58.070Z,99073.81
2023-01-03T18:41:28.815Z,99079.25
2023-01-03T18:43:58.439Z,99075.94
2023-01-03T18:46:27.886Z,99090.06
2023-01-03T18:48:56.224Z,99100.47
2023-01-03T18:51:25.684Z,99100.69
2023-01-03T18:53:55.664Z,99095.06
2023-01-03T18:56:28.562Z,99106.75
2023-01-03T18:59:02.213Z,99097.97
2023-01-03T19:01:33.442Z,99103.59
2023-01-03T19:04:01.838Z,99097.97
2023-01-03T19:06:33.876Z,99101.13
2023-01-03T19:09:03.704Z,99103.19
2023-01-03T19:11:34.138Z,99090.28
2023-01-03T19:14:05.193Z,99091.31
2023-01-03T19:16:36.649Z,99089.84
2023-01-03T19:19:05.973Z,99083.19
2023-01-03T19:21:35.482Z,99092.34
2023-01-03T19:24:05.456Z,99093.59
2023-01-03T19:26:35.780Z,99078.81
2023-01-03T19:29:05.900Z,99074.66
2023-01-03T19:31:47.335Z,99091.09
2023-01-03T19:34:16.406Z,99077.56
2023-01-03T19:36:44.858Z,99090.69
2023-01-03T19:39:13.273Z,99091.75
2023-01-03T19:42:05.540Z,99078.81
2023-01-03T19:44:37.184Z,99087.16
2023-01-03T19:47:14.727Z,99097.75
2023-01-03T19:49:48.408Z,99093.00
2023-01-03T19:52:17.952Z,99103.81
2023-01-03T19:54:48.284Z,99082.16
2023-01-03T19:57:18.657Z,99091.31
2023-01-03T19:59:51.631Z,99079.84
2023-01-03T20:02:39.483Z,99091.75
2023-01-03T20:05:20.230Z,99076.31
2023-01-03T20:07:50.745Z,99085.69
2023-01-03T20:10:21.049Z,99082.56
2023-01-03T20:12:49.897Z,99092.56
2023-01-03T20:15:23.869Z,99099.00
2023-01-03T20:17:55.416Z,99097.97
2023-01-03T20:20:24.403Z,99097.13
2023-01-03T20:23:06.285Z,99086.28
2023-01-03T20:25:37.212Z,99086.09
2023-01-03T20:28:07.122Z,99074.22
2023-01-03T20:30:39.982Z,99082.97
2023-01-03T20:33:09.891Z,99107.13
2023-01-03T20:38:40.648Z,99111.91
2023-01-03T20:41:10.721Z,99117.13
2023-01-03T20:43:40.197Z,99120.88
2023-01-03T20:46:12.808Z,99140.03
2023-01-03T20:48:43.670Z,99129.19
2023-01-03T20:51:14.840Z,99125.88
2023-01-03T20:53:47.840Z,99125.88
2023-01-03T20:56:18.585Z,99125.88
2023-01-03T20:58:46.665Z,99132.13
2023-01-03T21:01:16.259Z,99133.34
2023-01-03T21:03:47.477Z,99137.94
2023-01-03T21:06:21.547Z,99131.91
2023-01-03T21:08:58.194Z,99147.50
2023-01-03T21:11:27.448Z,99143.97
2023-01-03T21:13:55.901Z,99143.38
2023-01-03T21:16:29.004Z,99147.50
2023-01-03T21:19:01.881Z,99138.78
2023-01-03T21:21:30.981Z,99151.50
2023-01-03T21:23:59.492Z,99149.00
2023-01-03T21:26:27.806Z,99141.28
2023-01-03T21:28:56.121Z,99147.50
2023-01-03T21:31:25.310Z,99151.91
2023-01-03T21:33:54.331Z,99154.63
2023-01-03T21:36:26.691Z,99155.03
2023-01-03T21:38:55.081Z,99156.47
2023-01-03T21:41:25.903Z,99155.44
2023-01-03T21:43:56.077Z,99159.41
2023-01-03T21:46:25.631Z,99157.53
2023-01-03T21:48:56.225Z,99167.94
2023-01-03T21:51:41.122Z,99154.19
2023-01-03T21:54:09.697Z,99169.00
2023-01-03T21:56:45.812Z,99164.19
2023-01-03T21:59:15.499Z,99170.63
2023-01-03T22:02:01.699Z,99175.03
2023-01-03T22:04:29.988Z,99178.16
2023-01-03T22:07:01.122Z,99183.34
2023-01-03T22:09:47.562Z,99187.50
2023-01-03T22:12:17.870Z,99174.16
2023-01-03T22:14:46.159Z,99179.19
2023-01-03T22:17:15.410Z,99174.59
2023-01-03T22:19:43.648Z,99175.44
2023-01-03T22:22:13.483Z,99183.34
2023-01-03T22:24:42.389Z,99186.28
2023-01-03T22:27:10.438Z,99188.78
2023-01-03T22:29:39.015Z,99194.19
2023-01-03T22:32:07.596Z,99195.22
2023-01-03T22:34:38.957Z,99193.75
2023-01-03T22:37:07.817Z,99203.13
2023-01-03T22:39:38.439Z,99214.00
2023-01-03T22:42:06.900Z,99206.69
2023-01-03T22:44:35.316Z,99203.75
2023-01-03T22:47:04.364Z,99210.84
2023-01-03T22:49:32.848Z,99216.28
2023-01-03T22:52:02.343Z,99215.22
2023-01-03T22:54:30.477Z,99214.19
2023-01-03T22:57:00.832Z,99211.28
2023-01-03T22:59:30.459Z,99214.59
2023-01-03T23:01:58.778Z,99211.28
2023-01-03T23:04:27.994Z,99218.75
2023-01-03T23:06:56.374Z,99217.09
2023-01-03T23:09:25.866Z,99204.19
2023-01-03T23:12:11.469Z,99214.16
2023-01-03T23:14:41.407Z,99213.75
2023-01-03T23:17:27.477Z,99189.59
2023-01-03T23:19:55.975Z,99208.34
2023-01-03T23:22:24.785Z,99218.75
2023-01-03T23:24:53.626Z,99210.00
2023-01-03T23:27:23.205Z,99211.25
2023-01-03T23:29:52.950Z,99210.22
2023-01-03T23:32:21.059Z,99222.50
2023-01-03T23:34:49.119Z,99218.97
2023-01-03T23:37:17.306Z,99214.78
2023-01-03T23:39:45.451Z,99220.19
2023-01-03T23:42:13.622Z,99224.34
2023-01-03T23:44:41.825Z,99222.06
2023-01-03T23:47:16.602Z,99229.94
2023-01-03T23:49:46.543Z,99228.91
2023-01-03T23:52:15.553Z,99230.13
2023-01-03T23:54:46.623Z,99233.69
2023-01-03T23:57:14.687Z,99243.66
2023-01-03T23:59:43.676Z,99243.25
